Time;durP1;ratioP1;P1;durP2;ratioP2;P2;SDS_P1;SDS_P2;PMS_P1;PMS_P2;Temp;Humidity;BMP_temperature;BMP_pressure;BME280_temperature;BME280_humidity;BME280_pressure;Samples;Min_cycle;Max_cycle;Signal;HPM_P1;HPM_P2
2024/03/18 00:00:52;;;;;;;4.33;2.50;;;10.20;99.90;;;;;;5117222;28;20442;-82
2024/03/18 00:03:20;;;;;;;3.07;1.87;;;10.10;99.90;;;;;;5117274;28;20474;-82
2024/03/18 00:05:48;;;;;;;4.93;2.13;;;10.10;99.90;;;;;;5116529;28;20529;-82
2024/03/18 00:08:15;;;;;;;1.87;1.73;;;10.10;99.90;;;;;;5116552;28;20471;-82
2024/03/18 00:10:42;;;;;;;2.10;1.50;;;10.10;99.90;;;;;;5117062;28;20804;-82
2024/03/18 00:13:08;;;;;;;2.20;1.53;;;10.20;99.90;;;;;;5116280;28;20879;-82
2024/03/18 00:15:35;;;;;;;7.23;1.87;;;10.10;99.90;;;;;;5116203;28;20799;-82
2024/03/18 00:18:03;;;;;;;1.10;1.10;;;10.20;99.90;;;;;;5115589;28;20458;-82
2024/03/18 00:20:30;;;;;;;1.20;1.10;;;10.20;99.90;;;;;;5115669;28;21024;-82
2024/03/18 00:22:58;;;;;;;2.33;1.43;;;10.20;99.90;;;;;;5115424;28;20987;-82
2024/03/18 00:25:25;;;;;;;1.37;1.10;;;10.20;99.90;;;;;;5116156;28;20457;-82
2024/03/18 00:27:52;;;;;;;1.80;1.57;;;10.20;99.90;;;;;;5115280;28;20463;-82
2024/03/18 00:30:18;;;;;;;2.90;1.60;;;10.30;99.90;;;;;;5115688;28;20435;-82
2024/03/18 00:32:45;;;;;;;2.03;1.80;;;10.20;99.90;;;;;;5115697;28;20805;-82
2024/03/18 00:35:13;;;;;;;3.37;1.30;;;10.30;99.90;;;;;;5115508;28;20435;-82
2024/03/18 00:37:40;;;;;;;4.70;1.30;;;10.30;99.90;;;;;;5115323;28;20465;-82
2024/03/18 00:40:10;;;;;;;1.77;1.63;;;10.30;99.90;;;;;;5115183;28;20436;-82
2024/03/18 00:42:36;;;;;;;3.97;1.30;;;10.20;99.90;;;;;;5119948;28;20442;-82
2024/03/18 00:45:04;;;;;;;2.27;2.03;;;10.20;99.90;;;;;;5119204;28;20427;-82
2024/03/18 00:47:31;;;;;;;4.27;1.70;;;10.20;99.90;;;;;;5119323;28;20312;-82
2024/03/18 00:49:59;;;;;;;18.93;3.00;;;10.20;99.90;;;;;;5119167;28;20444;-81
2024/03/18 00:52:25;;;;;;;3.80;2.00;;;10.10;99.90;;;;;;5119591;28;20454;-82
2024/03/18 00:54:52;;;;;;;3.23;1.87;;;10.10;99.90;;;;;;5119352;28;20443;-82
2024/03/18 00:57:21;;;;;;;3.80;1.80;;;10.00;99.90;;;;;;5119191;28;20450;-82
2024/03/18 00:59:47;;;;;;;2.40;1.43;;;10.00;99.90;;;;;;5119297;28;20479;-82
2024/03/18 01:02:14;;;;;;;2.77;1.87;;;10.00;99.90;;;;;;5118778;28;20431;-82
2024/03/18 01:04:41;;;;;;;2.20;1.97;;;9.90;99.90;;;;;;5118988;28;20486;-81
2024/03/18 01:07:07;;;;;;;2.20;1.50;;;9.90;99.90;;;;;;5118626;28;20789;-83
2024/03/18 01:09:36;;;;;;;1.93;1.43;;;9.90;99.90;;;;;;5119005;28;20473;-81
2024/03/18 01:12:03;;;;;;;9.03;2.03;;;9.90;99.90;;;;;;5118477;28;20971;-81
2024/03/18 01:14:31;;;;;;;2.77;2.10;;;9.80;99.90;;;;;;5135542;28;20498;-82
2024/03/18 01:16:58;;;;;;;1.70;1.40;;;9.80;99.90;;;;;;5142821;28;20464;-83
2024/03/18 01:19:25;;;;;;;3.57;2.03;;;9.80;99.90;;;;;;5142400;28;20477;-83
2024/03/18 01:21:52;;;;;;;2.30;1.87;;;9.80;99.90;;;;;;5142602;28;20441;-83
2024/03/18 01:24:18;;;;;;;5.40;2.30;;;9.70;99.90;;;;;;5124003;28;20485;-82
2024/03/18 01:26:45;;;;;;;2.50;1.87;;;9.80;99.90;;;;;;5119316;28;20428;-82
2024/03/18 01:29:12;;;;;;;3.83;1.70;;;9.80;99.90;;;;;;5119679;28;20493;-82
2024/03/18 01:31:40;;;;;;;1.93;1.43;;;9.80;99.90;;;;;;5119430;28;20447;-82
2024/03/18 01:34:10;;;;;;;4.20;3.30;;;9.80;99.90;;;;;;5119070;28;20446;-82
2024/03/18 01:36:37;;;;;;;7.17;2.77;;;9.70;99.90;;;;;;5118977;28;20428;-82
2024/03/18 01:39:04;;;;;;;2.20;1.77;;;9.70;99.90;;;;;;5119031;28;20463;-82
2024/03/18 01:41:31;;;;;;;12.00;2.60;;;9.70;99.90;;;;;;5119038;28;20450;-82
2024/03/18 01:43:57;;;;;;;3.00;1.53;;;9.80;99.90;;;;;;5118816;28;20470;-82
2024/03/18 01:46:24;;;;;;;1.93;1.80;;;9.80;99.90;;;;;;5119228;28;20447;-82
2024/03/18 01:48:52;;;;;;;2.60;2.20;;;9.80;99.90;;;;;;5118887;28;20463;-82
2024/03/18 01:51:20;;;;;;;2.57;2.10;;;9.80;99.90;;;;;;5118617;28;20451;-82
2024/03/18 01:53:46;;;;;;;4.17;2.20;;;9.80;99.90;;;;;;5124073;28;20435;-82
2024/03/18 01:56:14;;;;;;;3.30;1.93;;;9.70;99.90;;;;;;5119053;28;20442;-82
2024/03/18 01:58:42;;;;;;;4.10;2.07;;;9.90;99.90;;;;;;5118660;28;20891;-82
2024/03/18 02:01:09;;;;;;;4.93;2.33;;;9.80;99.90;;;;;;5118906;28;20451;-82
2024/03/18 02:03:36;;;;;;;4.40;1.83;;;9.80;99.90;;;;;;5118414;28;20478;-83
2024/03/18 02:06:06;;;;;;;3.13;2.77;;;9.80;99.90;;;;;;5118729;28;20838;-82
2024/03/18 02:08:33;;;;;;;2.23;1.70;;;9.80;99.90;;;;;;5118433;28;20520;-82
2024/03/18 02:11:00;;;;;;;4.77;3.57;;;9.80;99.90;;;;;;5118343;28;20439;-82
2024/03/18 02:13:27;;;;;;;3.30;2.30;;;9.80;99.90;;;;;;5118246;28;20466;-82
2024/03/18 02:15:53;;;;;;;3.33;1.80;;;9.70;99.90;;;;;;5118057;28;20939;-82
2024/03/18 02:18:20;;;;;;;2.93;2.30;;;9.80;99.90;;;;;;5118309;28;20490;-82
2024/03/18 02:20:47;;;;;;;4.80;2.70;;;9.80;99.90;;;;;;5117791;28;20439;-82
2024/03/18 02:23:15;;;;;;;3.23;2.10;;;9.80;99.90;;;;;;5122384;28;20812;-83
2024/03/18 02:25:42;;;;;;;3.50;2.60;;;9.80;99.90;;;;;;5118438;28;20478;-83
2024/03/18 02:28:10;;;;;;;3.27;2.83;;;9.80;99.90;;;;;;5118122;28;20467;-83
2024/03/18 02:30:37;;;;;;;2.90;2.00;;;9.80;99.90;;;;;;5118110;28;20491;-82
2024/03/18 02:33:04;;;;;;;3.83;2.63;;;9.80;99.90;;;;;;5117486;28;20450;-82
2024/03/18 02:35:31;;;;;;;5.00;2.77;;;9.80;99.90;;;;;;5117739;28;20443;-82
2024/03/18 02:37:57;;;;;;;4.80;2.87;;;9.80;99.90;;;;;;5117562;28;20826;-82
2024/03/18 02:40:25;;;;;;;5.53;2.40;;;9.80;99.90;;;;;;5117898;28;20447;-82
2024/03/18 02:42:53;;;;;;;6.00;2.20;;;10.00;99.90;;;;;;5116976;28;20443;-82
2024/03/18 02:45:19;;;;;;;5.83;3.00;;;9.80;99.90;;;;;;5117537;28;20522;-82
2024/03/18 02:47:47;;;;;;;3.43;1.70;;;9.80;99.90;;;;;;5117645;28;20474;-82
2024/03/18 02:50:17;;;;;;;4.17;2.17;;;9.80;99.90;;;;;;5117521;28;20453;-82
2024/03/18 02:52:44;;;;;;;7.00;3.60;;;9.90;99.90;;;;;;5117366;28;20789;-82
2024/03/18 02:55:11;;;;;;;5.93;2.00;;;9.80;99.90;;;;;;5116841;28;20450;-82
2024/03/18 02:57:39;;;;;;;4.27;2.67;;;9.90;99.90;;;;;;5117060;28;20463;-82
2024/03/18 03:00:08;;;;;;;3.57;2.50;;;9.80;99.90;;;;;;5117622;28;20769;-82
2024/03/18 03:02:34;;;;;;;3.33;2.50;;;9.80;99.90;;;;;;5117413;28;20458;-82
2024/03/18 03:05:01;;;;;;;3.27;2.33;;;9.90;99.90;;;;;;5116254;28;20486;-82
2024/03/18 03:07:27;;;;;;;5.10;2.30;;;9.90;99.90;;;;;;5117552;28;20463;-82
2024/03/18 03:09:54;;;;;;;2.80;2.13;;;9.90;99.90;;;;;;5117093;28;20935;-83
2024/03/18 03:12:21;;;;;;;4.07;3.00;;;9.90;99.90;;;;;;5116181;28;20682;-82
2024/03/18 03:14:49;;;;;;;8.83;3.10;;;9.90;99.90;;;;;;5116546;28;20439;-82
2024/03/18 03:17:16;;;;;;;2.90;2.13;;;9.90;99.90;;;;;;5116871;28;20447;-82
2024/03/18 03:19:43;;;;;;;9.50;2.70;;;9.90;99.90;;;;;;5116780;28;20526;-82
2024/03/18 03:22:11;;;;;;;2.60;2.40;;;9.90;99.90;;;;;;5116554;28;20434;-82
2024/03/18 03:24:37;;;;;;;3.90;2.40;;;9.90;99.90;;;;;;5116799;28;20570;-82
2024/03/18 03:27:05;;;;;;;2.83;2.53;;;9.90;99.90;;;;;;5116446;28;20955;-83
2024/03/18 03:29:31;;;;;;;3.53;2.40;;;9.90;99.90;;;;;;5115981;28;20519;-82
2024/03/18 03:31:59;;;;;;;2.37;2.17;;;9.90;99.90;;;;;;5116278;28;20454;-82
2024/03/18 03:34:26;;;;;;;2.53;2.33;;;9.90;99.90;;;;;;5116083;28;20458;-82
2024/03/18 03:36:54;;;;;;;2.17;1.97;;;9.90;99.90;;;;;;5116501;28;20442;-82
2024/03/18 03:39:22;;;;;;;5.73;2.67;;;9.90;99.90;;;;;;5116497;28;20459;-82
2024/03/18 03:41:49;;;;;;;3.80;2.60;;;9.90;99.90;;;;;;5115931;28;20449;-82
2024/03/18 03:44:15;;;;;;;1.70;1.60;;;9.90;99.90;;;;;;5115875;28;20474;-83
2024/03/18 03:46:42;;;;;;;2.50;2.30;;;9.90;99.90;;;;;;5116095;28;20447;-82
2024/03/18 03:49:10;;;;;;;3.20;2.13;;;10.00;99.90;;;;;;5115921;28;20516;-82
2024/03/18 03:51:38;;;;;;;3.40;2.37;;;10.00;99.90;;;;;;5119691;28;20836;-83
2024/03/18 03:54:05;;;;;;;2.47;1.80;;;9.90;99.90;;;;;;5119028;28;20439;-83
2024/03/18 03:56:32;;;;;;;2.80;2.03;;;9.90;99.90;;;;;;5116875;28;20447;-83
2024/03/18 03:58:59;;;;;;;2.70;1.80;;;9.80;99.90;;;;;;5116430;28;20483;-83
2024/03/18 04:01:25;;;;;;;4.03;2.57;;;9.90;99.90;;;;;;5117606;28;20447;-83
2024/03/18 04:03:52;;;;;;;9.00;2.67;;;9.90;99.90;;;;;;5138446;28;20427;-84
2024/03/18 04:06:20;;;;;;;2.13;1.93;;;9.90;99.90;;;;;;5139486;28;20432;-84
2024/03/18 04:08:47;;;;;;;2.13;1.83;;;9.90;99.90;;;;;;5139910;28;20457;-85
2024/03/18 04:11:14;;;;;;;2.93;1.77;;;9.90;99.90;;;;;;5129265;28;20490;-86
2024/03/18 04:13:41;;;;;;;1.63;1.53;;;9.90;99.90;;;;;;5122313;28;20476;-86
2024/03/18 04:16:09;;;;;;;2.60;1.33;;;9.90;99.90;;;;;;5120947;28;20451;-86
2024/03/18 04:18:36;;;;;;;1.70;1.47;;;9.90;99.90;;;;;;5120454;28;20467;-86
2024/03/18 04:21:03;;;;;;;5.27;1.77;;;9.90;99.90;;;;;;5120352;28;20439;-86
2024/03/18 04:23:32;;;;;;;2.30;2.03;;;9.90;99.90;;;;;;5120049;28;20910;-86
2024/03/18 04:26:00;;;;;;;2.00;1.80;;;10.00;99.90;;;;;;5120263;28;20474;-86
2024/03/18 04:28:27;;;;;;;3.53;2.40;;;10.00;99.90;;;;;;5119745;28;20470;-86
2024/03/18 04:30:54;;;;;;;2.40;2.20;;;9.90;99.90;;;;;;5119322;28;20442;-85
2024/03/18 04:33:20;;;;;;;1.30;1.20;;;9.90;99.90;;;;;;5118422;28;20454;-86
2024/03/18 04:35:47;;;;;;;5.70;1.90;;;9.90;99.90;;;;;;5118247;28;20442;-85
2024/03/18 04:38:13;;;;;;;6.23;2.37;;;10.00;99.90;;;;;;5118352;28;20451;-86
2024/03/18 04:40:41;;;;;;;2.07;1.87;;;9.90;99.90;;;;;;5118705;28;20437;-86
2024/03/18 04:43:08;;;;;;;2.20;1.97;;;9.90;99.90;;;;;;5117883;28;20230;-85
2024/03/18 04:45:34;;;;;;;2.23;1.73;;;9.90;99.90;;;;;;5117832;28;20836;-85
2024/03/18 04:48:01;;;;;;;2.40;2.07;;;9.90;99.90;;;;;;5117445;28;20470;-86
2024/03/18 04:50:28;;;;;;;4.57;2.13;;;10.10;99.90;;;;;;5117968;28;20475;-86
2024/03/18 04:52:55;;;;;;;2.10;1.70;;;9.90;99.90;;;;;;5115641;28;20447;-86
2024/03/18 04:55:22;;;;;;;1.60;1.50;;;9.90;99.90;;;;;;5115772;28;20962;-86
2024/03/18 04:57:55;;;;;;;1.77;1.50;;;9.90;99.90;;;;;;5116376;28;20985;-86
2024/03/18 05:00:24;;;;;;;4.90;2.47;;;9.90;99.90;;;;;;5116987;28;20439;-85
2024/03/18 05:02:51;;;;;;;3.20;1.23;;;9.90;99.90;;;;;;5116387;28;21007;-85
2024/03/18 05:05:18;;;;;;;9.60;1.97;;;9.90;99.90;;;;;;5116050;28;20987;-86
2024/03/18 05:07:45;;;;;;;2.23;1.67;;;9.90;99.90;;;;;;5115879;28;20478;-87
2024/03/18 05:10:16;;;;;;;2.30;2.10;;;9.90;99.90;;;;;;5115926;28;20447;-85
2024/03/18 05:12:43;;;;;;;3.80;2.70;;;9.90;99.90;;;;;;5115858;28;20427;-86
2024/03/18 05:15:11;;;;;;;1.93;1.70;;;9.90;99.90;;;;;;5116961;28;20443;-86
2024/03/18 05:17:38;;;;;;;2.50;2.30;;;9.90;99.90;;;;;;5116437;28;20996;-85
2024/03/18 05:20:11;;;;;;;6.00;3.03;;;10.10;99.90;;;;;;5115968;28;20443;-85
2024/03/18 05:22:38;;;;;;;2.67;2.10;;;10.00;99.90;;;;;;5115621;28;20939;-86
2024/03/18 05:25:07;;;;;;;2.40;2.10;;;10.00;99.90;;;;;;5116289;28;20475;-85
2024/03/18 05:27:34;;;;;;;2.67;2.37;;;9.90;99.90;;;;;;5118395;28;20826;-85
2024/03/18 05:30:01;;;;;;;4.90;2.87;;;9.90;99.90;;;;;;5119873;28;20600;-85
2024/03/18 05:32:29;;;;;;;6.57;2.30;;;9.90;99.90;;;;;;5119189;28;20957;-85
2024/03/18 05:34:56;;;;;;;3.57;2.30;;;10.00;99.90;;;;;;5120155;28;20443;-85
2024/03/18 05:37:23;;;;;;;3.40;2.03;;;10.00;99.90;;;;;;5119968;28;20446;-86
2024/03/18 05:39:50;;;;;;;2.77;1.70;;;9.90;99.90;;;;;;5119788;28;20496;-85
2024/03/18 05:42:16;;;;;;;1.60;1.50;;;9.90;99.90;;;;;;5118904;28;20431;-86
2024/03/18 05:44:43;;;;;;;2.70;1.70;;;9.90;99.90;;;;;;5118733;28;20478;-87
2024/03/18 05:47:10;;;;;;;1.70;1.00;;;9.90;99.90;;;;;;5119124;28;20804;-85
2024/03/18 05:49:38;;;;;;;2.60;1.43;;;9.90;99.90;;;;;;5118267;28;20932;-87
2024/03/18 05:52:05;;;;;;;5.73;1.70;;;9.90;99.90;;;;;;5118393;28;20435;-85
2024/03/18 05:54:32;;;;;;;2.50;1.67;;;9.90;99.90;;;;;;5118749;27;20439;-85
2024/03/18 05:56:58;;;;;;;1.67;1.57;;;9.90;99.90;;;;;;5119494;28;20443;-86
2024/03/18 05:59:25;;;;;;;3.80;1.90;;;9.90;99.90;;;;;;5119596;28;20486;-85
2024/03/18 06:01:52;;;;;;;2.80;1.67;;;9.90;99.90;;;;;;5127647;28;20520;-86
2024/03/18 06:04:20;;;;;;;1.57;1.47;;;10.00;99.90;;;;;;5128179;28;20422;-87
2024/03/18 06:06:48;;;;;;;3.70;2.33;;;9.90;99.90;;;;;;5122106;28;20782;-86
2024/03/18 06:09:15;;;;;;;1.87;1.73;;;10.00;99.90;;;;;;5121951;28;20467;-86
2024/03/18 06:11:42;;;;;;;3.80;1.20;;;10.00;99.90;;;;;;5124982;28;20447;-87
2024/03/18 06:14:11;;;;;;;3.27;2.03;;;9.90;99.90;;;;;;5128570;28;20443;-86
2024/03/18 06:16:38;;;;;;;1.20;1.10;;;10.00;99.90;;;;;;5127398;28;20424;-86
2024/03/18 06:19:06;;;;;;;2.10;1.37;;;10.00;99.90;;;;;;5128946;28;20983;-86
2024/03/18 06:21:39;;;;;;;4.80;1.87;;;10.00;99.90;;;;;;5120799;28;20534;-86
2024/03/18 06:24:17;;;;;;;3.20;1.87;;;10.10;99.90;;;;;;5121428;28;20935;-86
2024/03/18 06:26:43;;;;;;;1.30;1.10;;;10.10;99.90;;;;;;5121730;28;20469;-86
2024/03/18 06:29:10;;;;;;;2.60;2.00;;;10.10;99.90;;;;;;5121310;28;20550;-86
2024/03/18 06:31:37;;;;;;;3.63;1.60;;;10.10;99.90;;;;;;5121840;28;20205;-86
2024/03/18 06:34:05;;;;;;;1.50;1.40;;;10.10;99.90;;;;;;5120923;28;20440;-85
2024/03/18 06:36:32;;;;;;;2.20;1.70;;;10.10;99.90;;;;;;5122141;28;20848;-85
2024/03/18 06:38:58;;;;;;;5.43;2.23;;;10.10;99.90;;;;;;5120704;28;20827;-86
2024/03/18 06:41:27;;;;;;;1.73;1.53;;;10.10;99.90;;;;;;5120765;28;20454;-86
2024/03/18 06:43:53;;;;;;;2.20;1.80;;;10.10;99.90;;;;;;5122880;28;20447;-86
2024/03/18 06:46:20;;;;;;;2.50;1.23;;;10.00;99.90;;;;;;5122264;28;20531;-85
2024/03/18 06:48:47;;;;;;;5.00;2.63;;;10.00;99.90;;;;;;5121818;28;20463;-85
2024/03/18 06:51:14;;;;;;;2.93;1.33;;;9.90;99.90;;;;;;5121656;28;21006;-84
2024/03/18 06:53:41;;;;;;;4.03;2.07;;;9.90;99.90;;;;;;5121058;28;20443;-84
2024/03/18 06:56:09;;;;;;;1.63;1.53;;;9.90;99.90;;;;;;5120592;28;20435;-84
2024/03/18 06:58:38;;;;;;;2.77;2.57;;;9.90;99.90;;;;;;5120995;28;20513;-83
2024/03/18 07:01:05;;;;;;;1.53;1.43;;;9.90;99.90;;;;;;5120762;28;20443;-83
2024/03/18 07:03:32;;;;;;;3.47;2.13;;;9.90;99.90;;;;;;5121027;28;20450;-84
2024/03/18 07:06:01;;;;;;;1.93;1.83;;;10.00;99.90;;;;;;5121953;28;20514;-84
2024/03/18 07:08:29;;;;;;;8.00;2.20;;;10.00;99.90;;;;;;5141423;28;20478;-84
2024/03/18 07:10:55;;;;;;;12.63;1.90;;;9.90;99.90;;;;;;5140868;28;20427;-84
2024/03/18 07:13:22;;;;;;;2.47;2.10;;;9.90;99.90;;;;;;5141294;28;20419;-84
2024/03/18 07:15:50;;;;;;;9.93;2.40;;;9.80;99.90;;;;;;5140867;28;20439;-83
2024/03/18 07:18:18;;;;;;;2.07;1.97;;;9.80;99.90;;;;;;5141014;28;20469;-84
2024/03/18 07:20:44;;;;;;;2.77;2.40;;;9.80;99.90;;;;;;5126197;28;20435;-85
2024/03/18 07:23:13;;;;;;;5.00;1.80;;;9.80;99.90;;;;;;5119854;28;20450;-84
2024/03/18 07:25:39;;;;;;;3.40;2.20;;;9.80;99.90;;;;;;5121791;28;20478;-84
2024/03/18 07:28:06;;;;;;;4.87;2.20;;;9.80;99.90;;;;;;5120001;28;20470;-84
2024/03/18 07:30:33;;;;;;;2.10;1.90;;;9.80;99.90;;;;;;5119826;28;20435;-84
2024/03/18 07:33:01;;;;;;;4.30;3.17;;;9.80;99.90;;;;;;5118528;28;20444;-85
2024/03/18 07:35:28;;;;;;;5.10;2.43;;;9.80;99.90;;;;;;5119739;28;20848;-83
2024/03/18 07:37:54;;;;;;;3.63;2.67;;;9.90;99.90;;;;;;5119408;28;20459;-83
2024/03/18 07:40:21;;;;;;;4.07;2.90;;;9.90;99.90;;;;;;5119564;28;20457;-85
2024/03/18 07:42:49;;;;;;;6.97;2.70;;;9.90;99.90;;;;;;5119903;28;20446;-85
2024/03/18 07:45:16;;;;;;;5.30;3.87;;;9.90;99.90;;;;;;5119768;28;20478;-83
2024/03/18 07:47:43;;;;;;;4.43;3.37;;;10.00;99.90;;;;;;5119081;28;20987;-84
2024/03/18 07:50:11;;;;;;;2.80;2.50;;;10.00;99.90;;;;;;5122036;28;20870;-85
2024/03/18 07:52:38;;;;;;;2.53;2.30;;;10.00;99.90;;;;;;5120620;28;20450;-86
2024/03/18 07:55:06;;;;;;;2.73;2.53;;;10.00;99.90;;;;;;5119447;28;20454;-83
2024/03/18 07:57:33;;;;;;;3.10;2.90;;;10.10;99.90;;;;;;5119613;28;20456;-85
2024/03/18 08:00:00;;;;;;;2.93;2.73;;;10.00;99.90;;;;;;5118511;28;20427;-84
2024/03/18 08:02:26;;;;;;;5.00;2.03;;;9.90;99.90;;;;;;5118998;28;20439;-84
2024/03/18 08:04:53;;;;;;;2.90;2.60;;;9.70;99.90;;;;;;5118379;28;20434;-84
2024/03/18 08:07:21;;;;;;;2.87;1.50;;;9.70;99.90;;;;;;5117654;28;20412;-83
2024/03/18 08:09:48;;;;;;;5.90;2.20;;;9.60;99.90;;;;;;5118004;28;20454;-83
2024/03/18 08:12:15;;;;;;;2.27;2.07;;;9.50;99.90;;;;;;5118679;28;20811;-84
2024/03/18 08:14:43;;;;;;;3.40;2.30;;;9.50;99.90;;;;;;5117983;28;20955;-84
2024/03/18 08:17:11;;;;;;;3.17;2.30;;;9.60;99.90;;;;;;5125378;28;20434;-85
2024/03/18 08:19:38;;;;;;;2.97;1.90;;;9.50;99.90;;;;;;5122042;28;20479;-84
2024/03/18 08:22:04;;;;;;;3.13;1.93;;;9.50;99.90;;;;;;5119999;28;20469;-83
2024/03/18 08:24:33;;;;;;;1.23;1.13;;;9.50;99.90;;;;;;5125695;28;20442;-85
2024/03/18 08:26:59;;;;;;;1.40;1.30;;;9.50;99.90;;;;;;5120789;28;20482;-84
2024/03/18 08:29:27;;;;;;;3.77;1.80;;;9.50;99.90;;;;;;5126552;28;20496;-84
2024/03/18 08:31:54;;;;;;;4.20;1.97;;;9.50;99.90;;;;;;5120574;28;20846;-84
2024/03/18 08:34:20;;;;;;;3.07;1.93;;;9.50;99.90;;;;;;5120508;28;20441;-84
2024/03/18 08:36:47;;;;;;;1.90;1.70;;;9.50;99.90;;;;;;5120536;28;20453;-84
2024/03/18 08:39:14;;;;;;;4.90;1.97;;;9.60;99.90;;;;;;5121255;28;20546;-84
2024/03/18 08:41:42;;;;;;;3.00;1.47;;;9.50;99.90;;;;;;5123017;28;20447;-84
2024/03/18 08:44:09;;;;;;;4.30;2.63;;;9.50;99.90;;;;;;5121370;28;20446;-84
2024/03/18 08:46:35;;;;;;;3.13;1.63;;;9.50;99.90;;;;;;5119992;28;20471;-83
2024/03/18 08:49:02;;;;;;;2.77;2.00;;;9.50;99.90;;;;;;5119917;28;20461;-84
2024/03/18 08:51:29;;;;;;;2.87;1.70;;;9.60;99.90;;;;;;5119379;28;20800;-84
2024/03/18 08:53:56;;;;;;;1.70;1.50;;;9.60;99.90;;;;;;5118293;28;20447;-84
2024/03/18 08:56:22;;;;;;;1.70;1.37;;;9.60;99.90;;;;;;5118075;28;20435;-84
2024/03/18 08:58:50;;;;;;;3.97;2.43;;;9.60;99.90;;;;;;5118088;28;20479;-84
2024/03/18 09:01:17;;;;;;;2.50;2.17;;;9.70;99.90;;;;;;5119320;28;20431;-84
2024/03/18 09:03:44;;;;;;;1.90;1.57;;;9.70;99.90;;;;;;5121331;28;20963;-84
2024/03/18 09:06:11;;;;;;;2.63;1.50;;;9.80;99.90;;;;;;5122505;28;20487;-85
2024/03/18 09:08:38;;;;;;;2.17;1.50;;;9.90;99.90;;;;;;5122625;28;20451;-85
2024/03/18 09:11:05;;;;;;;1.77;1.67;;;9.90;99.90;;;;;;5122046;28;20443;-84
2024/03/18 09:13:32;;;;;;;2.20;1.63;;;10.00;99.90;;;;;;5122538;28;20484;-84
2024/03/18 09:16:00;;;;;;;1.50;1.40;;;10.10;99.90;;;;;;5121717;28;20443;-84
2024/03/18 09:18:27;;;;;;;1.80;1.67;;;10.10;99.90;;;;;;5121466;28;20458;-80
2024/03/18 09:20:56;;;;;;;3.33;2.00;;;10.20;99.90;;;;;;5121669;28;20431;-84
2024/03/18 09:23:24;;;;;;;2.60;1.77;;;10.20;99.90;;;;;;5122113;28;20508;-84
2024/03/18 09:25:51;;;;;;;1.73;1.60;;;10.30;99.90;;;;;;5121412;28;20478;-85
2024/03/18 09:28:19;;;;;;;1.40;1.30;;;10.40;99.90;;;;;;5121220;28;20463;-82
2024/03/18 09:30:46;;;;;;;1.90;1.73;;;10.40;99.90;;;;;;5121404;28;20428;-84
2024/03/18 09:33:14;;;;;;;2.13;1.70;;;10.50;99.90;;;;;;5120787;28;20457;-85
2024/03/18 09:35:40;;;;;;;1.63;1.53;;;10.50;99.90;;;;;;5121055;28;20521;-84
2024/03/18 09:38:08;;;;;;;3.10;1.83;;;10.50;99.90;;;;;;5120488;28;20522;-85
2024/03/18 09:40:35;;;;;;;2.60;1.97;;;10.50;99.90;;;;;;5120875;28;20432;-85
2024/03/18 09:43:01;;;;;;;1.93;1.80;;;10.60;99.90;;;;;;5121054;28;20447;-84
2024/03/18 09:45:28;;;;;;;5.00;1.90;;;10.60;99.90;;;;;;5122430;28;20813;-85
2024/03/18 09:47:57;;;;;;;1.80;1.37;;;10.60;99.90;;;;;;5129500;28;20458;-85
2024/03/18 09:50:27;;;;;;;2.00;1.57;;;10.60;99.90;;;;;;5123961;28;20446;-85
2024/03/18 09:52:55;;;;;;;3.27;1.90;;;10.60;99.90;;;;;;5123254;28;20443;-85
2024/03/18 09:55:23;;;;;;;4.97;2.00;;;10.70;99.90;;;;;;5122482;28;20474;-85
2024/03/18 09:57:50;;;;;;;2.80;1.87;;;10.80;99.90;;;;;;5121978;28;20968;-86
2024/03/18 10:00:19;;;;;;;2.50;2.17;;;10.80;99.90;;;;;;5129288;28;20434;-84
2024/03/18 10:02:45;;;;;;;3.20;2.20;;;10.90;99.90;;;;;;5142425;28;20422;-86
2024/03/18 10:05:13;;;;;;;3.00;1.90;;;11.00;99.90;;;;;;5142270;28;20437;-86
2024/03/18 10:07:44;;;;;;;8.63;2.87;;;10.90;99.90;;;;;;5142369;28;20477;-85
2024/03/18 10:10:16;;;;;;;4.37;2.07;;;10.90;99.90;;;;;;5142127;28;20427;-84
2024/03/18 10:12:43;;;;;;;3.27;2.67;;;10.90;99.90;;;;;;5141634;28;20475;-86
2024/03/18 10:15:12;;;;;;;1.77;1.30;;;10.90;99.90;;;;;;5139982;28;20428;-85
2024/03/18 10:17:40;;;;;;;6.93;2.43;;;10.90;99.90;;;;;;5123880;28;20463;-85
2024/03/18 10:20:20;;;;;;;2.70;2.50;;;10.90;99.90;;;;;;5122985;28;20446;-83
2024/03/18 10:22:51;;;;;;;5.60;2.60;;;10.90;99.90;;;;;;5122621;28;20431;-83
2024/03/18 10:25:21;;;;;;;3.63;2.23;;;10.90;99.90;;;;;;5122246;28;20774;-83
2024/03/18 10:27:48;;;;;;;10.53;1.97;;;10.90;99.90;;;;;;5122564;28;21056;-82
2024/03/18 10:30:16;;;;;;;2.00;1.90;;;10.90;99.90;;;;;;5122482;28;20451;-82
2024/03/18 10:32:44;;;;;;;6.20;2.10;;;11.00;99.90;;;;;;5122083;28;20940;-82
2024/03/18 10:35:19;;;;;;;4.73;2.13;;;11.00;99.90;;;;;;5127601;28;20431;-82
2024/03/18 10:37:53;;;;;;;5.50;2.43;;;10.90;99.90;;;;;;5122580;28;20458;-82
2024/03/18 10:40:30;;;;;;;5.10;2.20;;;10.90;99.90;;;;;;5122098;28;20414;-82
2024/03/18 10:43:01;;;;;;;4.10;2.70;;;10.90;99.90;;;;;;5122468;28;20434;-83
2024/03/18 10:45:29;;;;;;;2.87;2.67;;;10.90;99.90;;;;;;5121416;28;20428;-83
2024/03/18 10:47:56;;;;;;;1.83;1.60;;;10.90;99.90;;;;;;5122142;28;20490;-82
2024/03/18 10:50:23;;;;;;;22.77;1.83;;;10.90;99.90;;;;;;5123156;28;20512;-82
2024/03/18 10:52:55;;;;;;;2.77;2.13;;;10.90;99.90;;;;;;5123649;28;20808;-82
2024/03/18 10:55:23;;;;;;;2.87;2.60;;;10.80;99.90;;;;;;5122542;28;20427;-83
2024/03/18 10:57:51;;;;;;;1.57;1.30;;;10.80;99.90;;;;;;5122002;28;20482;-81
2024/03/18 11:00:19;;;;;;;1.60;1.50;;;10.90;99.90;;;;;;5123192;28;20418;-82
2024/03/18 11:02:54;;;;;;;2.80;1.97;;;10.90;99.90;;;;;;5121866;28;20416;-82
2024/03/18 11:05:21;;;;;;;13.73;2.97;;;10.90;99.90;;;;;;5121498;28;20480;-82
2024/03/18 11:07:48;;;;;;;1.20;1.10;;;10.90;99.90;;;;;;5121233;28;20892;-82
2024/03/18 11:10:17;;;;;;;1.77;1.57;;;10.90;99.90;;;;;;5120548;28;20451;-82
2024/03/18 11:12:44;;;;;;;2.30;1.93;;;10.90;99.90;;;;;;5119993;28;20792;-82
2024/03/18 11:15:11;;;;;;;2.47;1.63;;;10.90;99.90;;;;;;5120024;28;20458;-82
2024/03/18 11:17:42;;;;;;;1.60;1.50;;;10.90;99.90;;;;;;5119957;28;20458;-82
2024/03/18 11:20:14;;;;;;;2.50;2.30;;;11.00;99.90;;;;;;5119841;27;20443;-82
2024/03/18 11:22:48;;;;;;;4.03;1.67;;;10.90;99.90;;;;;;5120060;28;20428;-82
2024/03/18 11:25:22;;;;;;;1.53;1.43;;;10.80;99.90;;;;;;5119000;28;20427;-82
2024/03/18 11:27:53;;;;;;;2.30;1.87;;;10.80;99.90;;;;;;5119080;28;20486;-82
2024/03/18 11:30:26;;;;;;;1.90;1.80;;;10.80;99.90;;;;;;5119564;28;20419;-82
2024/03/18 11:32:52;;;;;;;1.83;1.73;;;10.80;99.90;;;;;;5119154;28;20889;-82
2024/03/18 11:35:19;;;;;;;5.13;2.10;;;10.80;99.90;;;;;;5119206;28;20445;-82
2024/03/18 11:37:47;;;;;;;3.23;2.40;;;10.80;99.90;;;;;;5118929;28;20455;-82
2024/03/18 11:40:16;;;;;;;1.00;1.00;;;10.90;99.90;;;;;;5119643;28;20450;-82
2024/03/18 11:42:45;;;;;;;1.83;1.67;;;10.90;99.90;;;;;;5118650;28;20443;-82
2024/03/18 11:45:20;;;;;;;2.40;2.13;;;10.90;99.90;;;;;;5120155;28;20427;-82
2024/03/18 11:47:48;;;;;;;1.80;1.70;;;11.00;99.90;;;;;;5117892;28;20482;-82
2024/03/18 11:50:16;;;;;;;4.20;1.60;;;11.00;99.90;;;;;;5118719;28;20458;-82
2024/03/18 11:52:44;;;;;;;2.67;1.77;;;11.00;99.90;;;;;;5119346;28;20451;-82
2024/03/18 11:55:15;;;;;;;1.77;1.57;;;11.00;99.90;;;;;;5118977;28;20439;-83
2024/03/18 11:57:44;;;;;;;1.80;1.53;;;11.00;99.90;;;;;;5118545;28;20459;-82
2024/03/18 12:00:13;;;;;;;2.20;1.80;;;11.00;99.90;;;;;;5118500;28;20427;-82
2024/03/18 12:02:42;;;;;;;1.80;1.70;;;11.10;99.90;;;;;;5118132;28;20455;-82
2024/03/18 12:05:09;;;;;;;1.90;1.70;;;11.10;99.90;;;;;;5118843;28;20450;-82
2024/03/18 12:07:36;;;;;;;1.10;1.00;;;11.10;99.90;;;;;;5119358;28;20874;-82
2024/03/18 12:10:05;;;;;;;1.00;0.80;;;11.10;99.90;;;;;;5118746;28;20432;-82
2024/03/18 12:12:33;;;;;;;0.70;0.70;;;11.10;99.90;;;;;;5118448;28;20428;-82
2024/03/18 12:15:02;;;;;;;0.80;0.80;;;11.10;99.90;;;;;;5117928;28;20451;-81
2024/03/18 12:17:30;;;;;;;6.43;1.30;;;11.10;99.90;;;;;;5116742;28;20545;-82
2024/03/18 12:20:01;;;;;;;0.73;0.60;;;11.10;99.90;;;;;;5115969;28;20451;-82
2024/03/18 12:22:29;;;;;;;1.43;1.00;;;11.10;99.90;;;;;;5117027;28;20431;-82
2024/03/18 12:30:30;;;;;;;0.50;0.50;;;11.10;99.90;;;;;;5116778;28;20422;-82
2024/03/18 12:32:56;;;;;;;0.47;0.47;;;11.00;99.90;;;;;;5116545;28;20842;-82
2024/03/18 12:35:23;;;;;;;0.80;0.60;;;11.10;99.90;;;;;;5116367;28;20470;-82
2024/03/18 12:37:52;;;;;;;0.50;0.50;;;11.10;99.90;;;;;;5115135;28;20451;-82
2024/03/18 12:40:19;;;;;;;1.87;0.67;;;11.10;99.90;;;;;;5115449;28;20837;-82
2024/03/18 12:42:47;;;;;;;0.50;0.50;;;11.10;99.90;;;;;;5122327;28;20438;-82
2024/03/18 12:45:14;;;;;;;0.40;0.40;;;11.10;99.90;;;;;;5117556;28;20492;-82
2024/03/18 12:47:42;;;;;;;0.57;0.47;;;11.10;99.90;;;;;;5117248;28;20515;-82
2024/03/18 12:50:16;;;;;;;1.23;0.50;;;11.20;99.90;;;;;;5117257;28;20428;-83
2024/03/18 12:52:43;;;;;;;0.60;0.60;;;11.20;99.90;;;;;;5117617;28;20428;-83
2024/03/18 12:55:11;;;;;;;0.60;0.50;;;11.20;99.90;;;;;;5118819;28;20458;-82
2024/03/18 12:57:40;;;;;;;2.70;0.60;;;11.20;99.90;;;;;;5115587;28;20459;-82
2024/03/18 13:00:10;;;;;;;0.77;0.40;;;11.30;99.90;;;;;;5122685;28;20569;-83